createdAt,value
2019-05-30T00:00:12.431Z,99.90
2019-05-30T00:02:27.787Z,99.90
2019-05-30T00:04:56.373Z,99.90
2019-05-30T00:07:24.949Z,99.90
2019-05-30T00:09:54.274Z,99.90
2019-05-30T00:12:22.963Z,99.90
2019-05-30T00:14:51.554Z,99.90
2019-05-30T00:17:20.147Z,99.90
2019-05-30T00:19:48.751Z,99.90
2019-05-30T00:22:17.384Z,99.90
2019-05-30T00:24:45.954Z,99.90
2019-05-30T00:27:14.552Z,99.90
2019-05-30T00:29:43.226Z,99.90
2019-05-30T00:32:11.904Z,99.90
2019-05-30T00:34:40.675Z,99.90
2019-05-30T00:37:09.225Z,99.90
2019-05-30T00:39:37.834Z,99.90
2019-05-30T00:42:06.929Z,99.90
2019-05-30T00:44:35.513Z,99.90
2019-05-30T00:47:04.516Z,99.90
2019-05-30T00:49:33.376Z,99.90
2019-05-30T00:52:02.627Z,99.90
2019-05-30T00:54:31.404Z,99.90
2019-05-30T00:57:00.688Z,99.90
2019-05-30T00:59:29.374Z,99.90
2019-05-30T01:01:58.579Z,99.90
2019-05-30T01:04:27.189Z,99.90
2019-05-30T01:06:56.869Z,99.90
2019-05-30T01:09:25.600Z,99.90
2019-05-30T01:11:54.271Z,99.90
2019-05-30T01:14:22.946Z,99.90
2019-05-30T01:16:51.591Z,99.90
2019-05-30T01:19:20.232Z,99.90
2019-05-30T01:21:48.953Z,99.90
2019-05-30T01:24:17.619Z,99.90
2019-05-30T01:26:46.206Z,99.90
2019-05-30T01:29:14.806Z,99.90
2019-05-30T01:31:43.425Z,99.90
2019-05-30T01:34:12.141Z,99.90
2019-05-30T01:36:40.861Z,99.90
2019-05-30T01:39:09.463Z,99.90
2019-05-30T01:41:38.115Z,99.90
2019-05-30T01:44:06.658Z,99.90
2019-05-30T01:46:35.473Z,99.90
2019-05-30T01:49:04.417Z,99.90
2019-05-30T01:51:33.125Z,99.90
2019-05-30T01:54:02.565Z,99.90
2019-05-30T01:56:31.221Z,99.90
2019-05-30T01:59:00.644Z,99.90
2019-05-30T02:01:29.645Z,99.90
2019-05-30T02:03:59.062Z,99.90
2019-05-30T02:06:27.919Z,99.90
2019-05-30T02:08:56.754Z,99.90
2019-05-30T02:11:25.352Z,99.90
2019-05-30T02:13:53.921Z,99.90
2019-05-30T02:16:22.553Z,99.90
2019-05-30T02:18:51.124Z,99.90
2019-05-30T02:21:19.789Z,99.90
2019-05-30T02:23:48.359Z,99.90
2019-05-30T02:26:17.007Z,99.90
2019-05-30T02:28:45.693Z,99.90
2019-05-30T02:31:15.488Z,99.90
2019-05-30T02:33:44.059Z,99.90
2019-05-30T02:36:12.898Z,99.90
2019-05-30T02:38:41.576Z,99.90
2019-05-30T02:41:12.264Z,99.90
2019-05-30T02:43:40.613Z,99.90
2019-05-30T02:46:10.686Z,99.90
2019-05-30T02:48:57.218Z,99.90
2019-05-30T02:51:10.842Z,99.90
2019-05-30T02:53:40.550Z,99.90
2019-05-30T02:56:10.198Z,99.90
2019-05-30T02:58:39.414Z,99.90
2019-05-30T03:01:09.178Z,99.90
2019-05-30T03:03:38.387Z,99.90
2019-05-30T03:06:09.270Z,99.90
2019-05-30T03:08:37.634Z,99.90
2019-05-30T03:11:07.875Z,99.90
2019-05-30T03:13:36.616Z,99.90
2019-05-30T03:16:07.496Z,99.90
2019-05-30T03:18:35.912Z,99.90
2019-05-30T03:21:08.608Z,99.90
2019-05-30T03:23:35.452Z,99.90
2019-05-30T03:26:04.818Z,99.90
2019-05-30T03:28:34.323Z,99.90
2019-05-30T03:31:10.442Z,99.90
2019-05-30T03:33:41.644Z,99.90
2019-05-30T03:36:15.477Z,99.90
2019-05-30T03:38:36.877Z,99.90
2019-05-30T03:41:07.529Z,99.90
2019-05-30T03:43:36.288Z,99.90
2019-05-30T03:46:08.756Z,99.90
2019-05-30T03:48:41.250Z,99.90
2019-05-30T03:51:14.923Z,99.90
2019-05-30T03:53:43.536Z,99.90
2019-05-30T03:56:16.542Z,99.90
2019-05-30T03:59:08.106Z,99.50
2019-05-30T04:01:42.366Z,98.90
2019-05-30T04:04:17.247Z,98.40
2019-05-30T04:06:53.206Z,97.80
2019-05-30T04:09:25.275Z,97.10
2019-05-30T04:12:07.790Z,97.10
2019-05-30T04:14:39.645Z,96.70
2019-05-30T04:17:10.502Z,96.60
2019-05-30T04:19:38.700Z,96.30
2019-05-30T04:22:08.822Z,96.40
2019-05-30T04:24:37.871Z,96.70
2019-05-30T04:27:08.018Z,96.30
2019-05-30T04:29:37.598Z,96.40
2019-05-30T04:32:08.267Z,95.90
2019-05-30T04:34:36.749Z,95.50
2019-05-30T04:37:05.365Z,94.80
2019-05-30T04:39:34.033Z,94.30
2019-05-30T04:42:02.656Z,94.40
2019-05-30T04:44:31.286Z,94.20
2019-05-30T04:47:00.051Z,94.40
2019-05-30T04:49:29.255Z,93.90
2019-05-30T04:51:57.872Z,93.90
2019-05-30T04:54:26.476Z,92.20
2019-05-30T04:56:55.048Z,92.40
2019-05-30T04:59:23.654Z,92.00
2019-05-30T05:01:52.366Z,92.20
2019-05-30T05:04:21.699Z,92.10
2019-05-30T05:06:50.448Z,91.30
2019-05-30T05:09:20.280Z,91.20
2019-05-30T05:11:49.471Z,90.80
2019-05-30T05:14:18.499Z,91.70
2019-05-30T05:16:47.367Z,91.30
2019-05-30T05:19:17.172Z,89.90
2019-05-30T05:21:47.241Z,89.60
2019-05-30T05:24:17.203Z,89.90
2019-05-30T05:26:46.026Z,89.00
2019-05-30T05:29:15.780Z,88.70
2019-05-30T05:31:44.520Z,89.20
2019-05-30T05:34:14.395Z,89.50
2019-05-30T05:36:43.029Z,89.20
2019-05-30T05:39:11.682Z,85.00
2019-05-30T05:41:40.265Z,83.80
2019-05-30T05:44:08.936Z,82.60
2019-05-30T05:46:37.592Z,81.20
2019-05-30T05:49:06.407Z,82.50
2019-05-30T05:51:34.970Z,82.60
2019-05-30T05:54:03.823Z,78.80
2019-05-30T05:56:32.450Z,79.50
2019-05-30T05:59:01.107Z,76.50
2019-05-30T06:01:30.213Z,75.00
2019-05-30T06:04:12.116Z,74.00
2019-05-30T06:06:31.524Z,67.30
2019-05-30T06:08:59.648Z,60.10
2019-05-30T06:11:28.887Z,58.00
2019-05-30T06:13:57.644Z,55.10
2019-05-30T06:16:26.281Z,54.50
2019-05-30T06:18:54.959Z,52.10
2019-05-30T06:21:23.633Z,50.50
2019-05-30T06:23:52.197Z,49.50
2019-05-30T06:26:22.383Z,48.90
2019-05-30T06:28:51.442Z,50.80
2019-05-30T06:31:20.343Z,48.10
2019-05-30T06:33:49.157Z,46.30
2019-05-30T06:36:18.779Z,43.20
2019-05-30T06:38:47.632Z,43.10
2019-05-30T06:41:16.199Z,45.20
2019-05-30T06:43:45.055Z,44.20
2019-05-30T06:46:13.948Z,44.70
2019-05-30T06:48:42.510Z,44.50
2019-05-30T06:51:14.385Z,44.90
2019-05-30T06:53:41.486Z,44.00
2019-05-30T06:56:10.141Z,40.50
2019-05-30T06:58:48.476Z,38.80
2019-05-30T07:01:12.370Z,40.60
2019-05-30T07:03:41.137Z,40.10
2019-05-30T07:06:10.398Z,40.60
2019-05-30T07:08:39.460Z,39.30
2019-05-30T07:11:08.204Z,40.20
2019-05-30T07:13:36.932Z,39.30
2019-05-30T07:16:05.685Z,38.90
2019-05-30T07:18:36.585Z,36.70
2019-05-30T07:21:04.661Z,36.20
2019-05-30T07:23:34.869Z,36.20
2019-05-30T07:26:03.823Z,33.20
2019-05-30T07:28:32.756Z,33.60
2019-05-30T07:31:01.428Z,32.80
2019-05-30T07:33:30.315Z,34.80
2019-05-30T07:36:02.221Z,30.00
2019-05-30T07:38:30.717Z,29.70
2019-05-30T07:41:11.833Z,29.90
2019-05-30T07:43:40.493Z,28.20
2019-05-30T07:46:09.187Z,28.60
2019-05-30T07:48:42.700Z,29.50
2019-05-30T07:51:11.572Z,30.40
2019-05-30T07:53:40.190Z,31.60
2019-05-30T07:56:08.890Z,30.70
2019-05-30T07:58:37.558Z,30.60
2019-05-30T08:01:06.285Z,29.90
2019-05-30T08:03:35.031Z,30.00
2019-05-30T08:06:03.841Z,29.30
2019-05-30T08:08:33.854Z,31.00
2019-05-30T08:11:09.279Z,31.00
2019-05-30T08:13:33.165Z,31.60
2019-05-30T08:16:01.793Z,31.50
2019-05-30T08:18:31.644Z,30.10
2019-05-30T08:21:00.453Z,29.80
2019-05-30T08:23:30.076Z,29.60
2019-05-30T08:25:58.895Z,27.40
2019-05-30T08:28:30.248Z,26.40
2019-05-30T08:30:58.926Z,28.50
2019-05-30T08:33:27.621Z,29.50
2019-05-30T08:35:56.384Z,30.20
2019-05-30T08:38:25.066Z,30.50
2019-05-30T08:40:53.784Z,31.10
2019-05-30T08:43:22.521Z,29.70
2019-05-30T08:45:51.408Z,31.30
2019-05-30T08:48:20.085Z,31.00
2019-05-30T08:50:49.299Z,31.60
2019-05-30T08:53:18.682Z,30.20
2019-05-30T08:55:47.265Z,30.00
2019-05-30T08:58:15.831Z,30.80
2019-05-30T09:00:46.710Z,30.30
2019-05-30T09:03:15.404Z,30.40
2019-05-30T09:06:03.042Z,30.30
2019-05-30T09:08:21.717Z,29.10
2019-05-30T09:10:50.336Z,30.70
2019-05-30T09:13:19.171Z,30.60
2019-05-30T09:15:48.143Z,30.50
2019-05-30T09:18:16.810Z,30.30
2019-05-30T09:20:45.717Z,28.60
2019-05-30T09:23:14.598Z,29.10
2019-05-30T09:25:43.906Z,29.90
2019-05-30T09:28:13.650Z,29.40
2019-05-30T09:33:28.998Z,29.60
2019-05-30T09:36:12.128Z,28.60
2019-05-30T09:38:29.941Z,27.90
2019-05-30T09:40:58.518Z,29.90
2019-05-30T09:43:27.194Z,29.80
2019-05-30T09:45:55.854Z,29.80
2019-05-30T09:48:24.451Z,29.00
2019-05-30T09:50:57.863Z,28.70
2019-05-30T09:53:26.942Z,30.20
2019-05-30T09:55:55.579Z,29.40
2019-05-30T09:58:24.333Z,30.20
2019-05-30T10:00:54.579Z,30.10
2019-05-30T10:03:23.309Z,29.90
2019-05-30T10:05:52.670Z,28.90
2019-05-30T10:08:21.504Z,28.80
2019-05-30T10:10:51.285Z,29.90
2019-05-30T10:13:20.220Z,28.30
2019-05-30T10:15:48.992Z,28.10
2019-05-30T10:18:17.721Z,28.90
2019-05-30T10:20:47.744Z,29.10
2019-05-30T10:23:16.710Z,29.60
2019-05-30T10:25:46.744Z,28.60
2019-05-30T10:28:15.704Z,28.60
2019-05-30T10:30:45.362Z,27.40
2019-05-30T10:33:15.213Z,28.40
2019-05-30T10:35:45.627Z,28.30
2019-05-30T10:38:14.318Z,29.70
2019-05-30T10:40:42.985Z,30.00
2019-05-30T10:43:11.704Z,29.70
2019-05-30T10:45:40.417Z,30.00
2019-05-30T10:48:10.614Z,30.00
2019-05-30T10:50:39.272Z,30.70
2019-05-30T10:53:08.605Z,30.70
2019-05-30T10:55:37.294Z,30.70
2019-05-30T10:58:06.073Z,30.60
2019-05-30T11:00:48.435Z,30.30
2019-05-30T11:03:17.382Z,31.90
2019-05-30T11:05:49.074Z,30.20
2019-05-30T11:08:20.745Z,29.90
2019-05-30T11:10:50.601Z,29.20
2019-05-30T11:13:20.879Z,27.80
2019-05-30T11:15:51.665Z,28.50
2019-05-30T11:18:20.523Z,29.10
2019-05-30T11:20:49.964Z,28.20
2019-05-30T11:23:18.687Z,29.40
2019-05-30T11:25:48.478Z,29.30
2019-05-30T11:28:17.312Z,29.00
2019-05-30T11:30:45.907Z,27.20
2019-05-30T11:33:14.685Z,26.50
2019-05-30T11:35:46.891Z,26.30
2019-05-30T11:38:15.547Z,27.10
2019-05-30T11:40:45.755Z,26.60
2019-05-30T11:43:14.401Z,27.00
2019-05-30T11:45:43.347Z,30.00
2019-05-30T11:48:12.032Z,30.90
2019-05-30T11:50:40.622Z,30.90
2019-05-30T11:53:09.255Z,32.10
2019-05-30T11:55:37.820Z,32.20
2019-05-30T11:58:06.481Z,32.10
2019-05-30T12:00:35.245Z,33.90
2019-05-30T12:03:04.046Z,34.10
2019-05-30T12:05:32.699Z,34.40
2019-05-30T12:08:01.380Z,33.90
2019-05-30T12:10:31.551Z,34.40
2019-05-30T12:13:01.492Z,33.60
2019-05-30T12:15:30.539Z,32.60
2019-05-30T12:17:59.527Z,34.50
2019-05-30T12:20:28.638Z,33.40
2019-05-30T12:22:58.267Z,33.40
2019-05-30T12:25:27.079Z,32.20
2019-05-30T12:27:56.039Z,34.20
2019-05-30T12:30:26.966Z,32.10
2019-05-30T12:32:56.368Z,32.40
2019-05-30T12:35:25.173Z,33.50
2019-05-30T12:37:58.738Z,33.60
2019-05-30T12:40:24.379Z,33.80
2019-05-30T12:42:55.531Z,33.40
2019-05-30T12:45:23.994Z,32.70
2019-05-30T12:47:53.011Z,34.20
2019-05-30T12:50:22.604Z,35.10
2019-05-30T12:52:51.400Z,34.50
2019-05-30T12:55:20.208Z,34.70
2019-05-30T12:57:48.765Z,34.00
2019-05-30T13:00:20.248Z,34.30
2019-05-30T13:02:48.957Z,34.70
2019-05-30T13:05:17.895Z,34.40
2019-05-30T13:07:46.530Z,35.40
2019-05-30T13:10:15.774Z,33.80
2019-05-30T13:12:44.472Z,34.00
2019-05-30T13:15:14.679Z,34.50
2019-05-30T13:17:43.344Z,34.40
2019-05-30T13:20:14.250Z,33.60
2019-05-30T13:22:43.621Z,34.50
2019-05-30T13:25:15.453Z,33.90
2019-05-30T13:27:44.188Z,34.40
2019-05-30T13:30:13.189Z,35.70
2019-05-30T13:32:41.899Z,34.30
2019-05-30T13:35:10.905Z,33.80
2019-05-30T13:37:39.709Z,33.80
2019-05-30T13:40:24.455Z,33.70
2019-05-30T13:42:41.383Z,33.50
2019-05-30T13:45:11.222Z,33.90
2019-05-30T13:47:39.962Z,32.10
2019-05-30T13:50:13.346Z,31.50
2019-05-30T13:52:40.803Z,31.60
2019-05-30T13:55:11.386Z,31.50
2019-05-30T13:57:40.956Z,32.20
2019-05-30T14:00:10.842Z,32.80
2019-05-30T14:02:39.505Z,33.30
2019-05-30T14:05:10.552Z,32.90
2019-05-30T14:07:39.588Z,32.50
2019-05-30T14:10:09.050Z,33.70
2019-05-30T14:12:37.750Z,33.40
2019-05-30T14:15:13.958Z,33.20
2019-05-30T14:17:41.608Z,32.90
2019-05-30T14:20:12.365Z,32.70
2019-05-30T14:22:41.271Z,31.90
2019-05-30T14:25:11.614Z,31.70
2019-05-30T14:27:40.519Z,33.70
2019-05-30T14:30:11.078Z,33.90
2019-05-30T14:32:39.830Z,33.40
2019-05-30T14:35:10.547Z,34.20
2019-05-30T14:37:39.430Z,33.30
2019-05-30T14:40:10.844Z,34.10
2019-05-30T14:42:39.833Z,33.20
2019-05-30T14:45:10.639Z,33.60
2019-05-30T14:47:39.541Z,34.30
2019-05-30T14:50:11.130Z,33.00
2019-05-30T14:52:40.031Z,31.90
2019-05-30T14:55:11.133Z,32.30
2019-05-30T14:57:40.183Z,32.20
2019-05-30T15:00:13.452Z,32.30
2019-05-30T15:02:43.986Z,32.90
2019-05-30T15:05:15.737Z,33.80
2019-05-30T15:07:44.642Z,34.30
2019-05-30T15:10:14.170Z,34.30
2019-05-30T15:12:42.982Z,33.90
2019-05-30T15:15:14.747Z,33.60
2019-05-30T15:17:42.652Z,33.70
2019-05-30T15:20:13.878Z,32.50
2019-05-30T15:22:42.810Z,33.20
2019-05-30T15:25:12.063Z,34.70
2019-05-30T15:27:40.784Z,34.30
2019-05-30T15:30:12.624Z,33.90
2019-05-30T15:32:41.510Z,32.90
2019-05-30T15:35:10.982Z,33.90
2019-05-30T15:37:40.946Z,31.90
2019-05-30T15:40:12.920Z,33.00
2019-05-30T15:42:41.814Z,33.30
2019-05-30T15:45:11.924Z,33.80
2019-05-30T15:47:40.685Z,33.90
2019-05-30T15:50:11.293Z,33.70
2019-05-30T15:52:40.570Z,34.00
2019-05-30T15:55:11.196Z,33.00
2019-05-30T15:57:40.073Z,34.10
2019-05-30T16:00:14.770Z,34.30
2019-05-30T16:02:44.570Z,34.40
2019-05-30T16:05:14.714Z,34.40
2019-05-30T16:07:43.428Z,34.80
2019-05-30T16:10:12.825Z,34.50
2019-05-30T16:12:41.764Z,35.20
2019-05-30T16:15:11.637Z,35.00
2019-05-30T16:17:40.781Z,34.60
2019-05-30T16:20:09.984Z,34.80
2019-05-30T16:22:50.921Z,34.70
2019-05-30T16:25:19.749Z,35.60
2019-05-30T16:27:48.629Z,35.80
2019-05-30T16:30:22.028Z,36.10
2019-05-30T16:32:48.053Z,36.70
2019-05-30T16:35:18.258Z,37.40
2019-05-30T16:37:46.905Z,37.30
2019-05-30T16:40:16.436Z,38.00
2019-05-30T16:42:45.209Z,38.10
2019-05-30T16:45:20.345Z,38.30
2019-05-30T16:47:45.172Z,38.60
2019-05-30T16:50:14.595Z,39.00
2019-05-30T16:52:43.412Z,39.80
2019-05-30T16:55:12.687Z,39.80
2019-05-30T16:57:41.418Z,39.80
2019-05-30T17:00:13.128Z,40.60
2019-05-30T17:02:41.849Z,40.50
2019-05-30T17:05:12.355Z,40.40
2019-05-30T17:07:41.188Z,41.30
2019-05-30T17:10:21.981Z,41.40
2019-05-30T17:12:40.781Z,41.60
2019-05-30T17:15:10.233Z,41.80
2019-05-30T17:17:38.962Z,41.30
2019-05-30T17:20:12.370Z,41.80
2019-05-30T17:22:40.998Z,41.30
2019-05-30T17:25:11.853Z,42.00
2019-05-30T17:27:40.792Z,42.40
2019-05-30T17:30:11.623Z,42.30
2019-05-30T17:32:49.545Z,42.40
2019-05-30T17:35:18.256Z,42.70
2019-05-30T17:37:46.910Z,43.70
2019-05-30T17:40:16.742Z,43.40
2019-05-30T17:42:45.468Z,43.60
2019-05-30T17:45:14.318Z,44.20
2019-05-30T17:47:43.013Z,44.40
2019-05-30T17:50:13.124Z,44.60
2019-05-30T17:52:41.789Z,45.20
2019-05-30T17:55:10.932Z,45.80
2019-05-30T17:57:39.792Z,46.50
2019-05-30T18:00:14.306Z,46.60
2019-05-30T18:02:43.127Z,46.80
2019-05-30T18:05:12.625Z,47.10
2019-05-30T18:07:41.213Z,47.60
2019-05-30T18:10:10.458Z,48.10
2019-05-30T18:12:39.148Z,48.30
2019-05-30T18:15:10.012Z,48.60
2019-05-30T18:17:38.674Z,49.40
2019-05-30T18:20:09.019Z,49.80
2019-05-30T18:22:37.715Z,50.00
2019-05-30T18:25:08.628Z,50.30
2019-05-30T18:27:37.403Z,50.60
2019-05-30T18:30:07.479Z,50.90
2019-05-30T18:32:36.218Z,51.30
2019-05-30T18:35:08.598Z,51.90
2019-05-30T18:37:38.375Z,51.90
2019-05-30T18:40:08.935Z,52.60
2019-05-30T18:42:37.749Z,52.80
2019-05-30T18:45:10.798Z,53.30
2019-05-30T18:47:39.442Z,53.30
2019-05-30T18:50:08.757Z,53.70
2019-05-30T18:52:37.410Z,54.10
2019-05-30T18:55:08.162Z,54.20
2019-05-30T18:57:37.374Z,54.30
2019-05-30T19:00:10.149Z,54.60
2019-05-30T19:02:39.617Z,55.10
2019-05-30T19:05:08.486Z,55.60
2019-05-30T19:07:37.318Z,56.00
2019-05-30T19:10:06.596Z,56.20
2019-05-30T19:12:36.503Z,56.30
2019-05-30T19:15:07.529Z,56.70
2019-05-30T19:17:36.207Z,57.20
2019-05-30T19:20:07.077Z,57.30
2019-05-30T19:22:36.404Z,57.80
2019-05-30T19:25:07.908Z,57.90
2019-05-30T19:27:38.146Z,58.10
2019-05-30T19:30:10.913Z,58.90
2019-05-30T19:32:39.659Z,58.80
2019-05-30T19:35:09.090Z,59.10
2019-05-30T19:37:37.847Z,59.00
2019-05-30T19:40:07.215Z,59.30
2019-05-30T19:42:35.956Z,59.50
2019-05-30T19:45:10.294Z,59.80
2019-05-30T19:47:38.995Z,59.70
2019-05-30T19:50:08.852Z,60.20
2019-05-30T19:52:38.896Z,60.20
2019-05-30T19:55:08.948Z,60.40
2019-05-30T19:57:37.943Z,60.70
2019-05-30T20:00:08.418Z,60.80
2019-05-30T20:02:38.278Z,61.30
2019-05-30T20:05:08.341Z,61.80
2019-05-30T20:07:37.171Z,62.00
2019-05-30T20:10:06.744Z,62.20
2019-05-30T20:12:36.896Z,62.30
2019-05-30T20:15:11.390Z,62.90
2019-05-30T20:17:40.241Z,63.30
2019-05-30T20:20:09.391Z,64.30
2019-05-30T20:22:38.307Z,65.20
2019-05-30T20:25:08.554Z,65.90
2019-05-30T20:27:37.338Z,66.60
2019-05-30T20:30:08.842Z,67.40
2019-05-30T20:32:38.802Z,68.30
2019-05-30T20:35:08.196Z,69.30
2019-05-30T20:37:36.971Z,70.30
2019-05-30T20:40:07.974Z,71.20
2019-05-30T20:42:36.769Z,71.50
2019-05-30T20:45:10.015Z,72.40
2019-05-30T20:47:40.739Z,72.20
2019-05-30T20:50:14.112Z,73.50
2019-05-30T20:52:43.626Z,74.20
2019-05-30T20:55:12.408Z,74.80
2019-05-30T20:57:41.137Z,75.60
2019-05-30T21:00:11.635Z,75.90
2019-05-30T21:02:40.871Z,76.50
2019-05-30T21:05:10.252Z,77.00
2019-05-30T21:07:42.406Z,77.80
2019-05-30T21:10:12.045Z,78.40
2019-05-30T21:12:44.425Z,79.70
2019-05-30T21:15:12.838Z,80.20
2019-05-30T21:17:43.756Z,80.30
2019-05-30T21:20:13.924Z,80.90
2019-05-30T21:22:42.852Z,81.50
2019-05-30T21:25:12.161Z,81.80
2019-05-30T21:27:45.224Z,82.60
2019-05-30T21:30:14.680Z,82.60
2019-05-30T21:32:44.400Z,82.70
2019-05-30T21:35:14.307Z,83.10
2019-05-30T21:37:43.714Z,82.70
2019-05-30T21:40:12.673Z,83.50
2019-05-30T21:42:57.762Z,83.90
2019-05-30T21:45:12.066Z,84.00
2019-05-30T21:47:40.904Z,84.50
2019-05-30T21:50:09.972Z,85.70
2019-05-30T21:52:39.389Z,84.80
2019-05-30T21:55:08.298Z,86.40
2019-05-30T21:57:36.988Z,85.80
2019-05-30T22:00:11.947Z,87.00
2019-05-30T22:02:42.855Z,84.90
2019-05-30T22:05:11.673Z,85.80
2019-05-30T22:07:40.930Z,86.50
2019-05-30T22:10:10.029Z,88.10
2019-05-30T22:12:38.601Z,86.00
2019-05-30T22:15:07.660Z,87.20
2019-05-30T22:17:36.289Z,86.10
2019-05-30T22:20:06.535Z,87.60
2019-05-30T22:22:35.193Z,86.10
2019-05-30T22:25:05.099Z,87.50
2019-05-30T22:27:33.734Z,87.00
2019-05-30T22:30:02.395Z,88.00
2019-05-30T22:32:31.062Z,88.50
2019-05-30T22:34:59.667Z,88.10
2019-05-30T22:37:28.257Z,88.40
2019-05-30T22:39:56.862Z,88.50
2019-05-30T22:42:25.456Z,88.60
2019-05-30T22:44:54.053Z,88.80
2019-05-30T22:47:22.650Z,88.40
2019-05-30T22:49:51.219Z,88.50
2019-05-30T22:52:19.918Z,88.70
2019-05-30T22:54:49.095Z,88.80
2019-05-30T22:57:17.824Z,89.20
2019-05-30T22:59:46.726Z,89.20
2019-05-30T23:02:15.318Z,89.10
2019-05-30T23:04:43.948Z,89.10
2019-05-30T23:07:12.580Z,89.00
2019-05-30T23:09:41.451Z,89.50
2019-05-30T23:12:10.065Z,88.60
2019-05-30T23:14:38.714Z,88.40
2019-05-30T23:17:07.405Z,89.10
2019-05-30T23:19:36.087Z,89.10
2019-05-30T23:22:04.814Z,89.00
2019-05-30T23:24:33.458Z,88.40
2019-05-30T23:27:02.027Z,88.90
2019-05-30T23:29:30.739Z,89.00
2019-05-30T23:31:59.393Z,89.30
2019-05-30T23:34:28.011Z,89.30
2019-05-30T23:36:56.725Z,89.30
2019-05-30T23:39:25.493Z,89.20
2019-05-30T23:41:55.106Z,89.50
2019-05-30T23:44:23.902Z,89.70
2019-05-30T23:46:53.433Z,90.20
2019-05-30T23:49:22.108Z,89.80
2019-05-30T23:51:51.856Z,89.60
2019-05-30T23:54:20.521Z,89.40
2019-05-30T23:56:50.393Z,89.60
2019-05-30T23:59:19.242Z,89.60
